Time;durP1;ratioP1;P1;durP2;ratioP2;P2;SDS_P1;SDS_P2;PMS_P1;PMS_P2;Temp;Humidity;BMP_temperature;BMP_pressure;BME280_temperature;BME280_humidity;BME280_pressure;Samples;Min_cycle;Max_cycle;Signal;HPM_P1;HPM_P2
2023/04/20 00:01:02;;;;;;;;;;;10.00;79.20;;;;;;7334442;19;109593;-61
2023/04/20 00:03:31;;;;;;;;;;;10.00;79.60;;;;;;7332392;19;109344;-61
2023/04/20 00:06:02;;;;;;;;;;;10.00;79.60;;;;;;7335631;19;110515;-61
2023/04/20 00:08:29;;;;;;;;;;;9.90;79.60;;;;;;7335155;19;108870;-61
2023/04/20 00:10:56;;;;;;;;;;;9.90;79.70;;;;;;7331983;19;109050;-61
2023/04/20 00:13:23;;;;;;;;;;;9.90;79.90;;;;;;7334961;19;110987;-61
2023/04/20 00:15:50;;;;;;;;;;;9.80;79.90;;;;;;7340134;19;110011;-61
2023/04/20 00:18:17;;;;;;;;;;;9.80;79.40;;;;;;7335217;19;109348;-61
2023/04/20 00:20:44;;;;;;;;;;;9.70;79.90;;;;;;7335644;19;109488;-61
2023/04/20 00:23:11;;;;;;;;;;;9.70;80.10;;;;;;7337289;19;109395;-61
2023/04/20 00:25:38;;;;;;;;;;;9.60;80.10;;;;;;7335414;19;109566;-61
2023/04/20 00:28:05;;;;;;;;;;;9.60;80.00;;;;;;7337895;19;109319;-61
2023/04/20 00:30:32;;;;;;;;;;;9.50;79.70;;;;;;7342469;19;111570;-61
2023/04/20 00:32:59;;;;;;;;;;;9.40;80.10;;;;;;7335663;19;110470;-61
2023/04/20 00:35:26;;;;;;;;;;;9.40;80.10;;;;;;7345984;19;110462;-64
2023/04/20 00:37:53;;;;;;;;;;;9.40;80.50;;;;;;7340565;19;109127;-70
2023/04/20 00:40:20;;;;;;;;;;;9.30;80.40;;;;;;7342120;19;108673;-69
2023/04/20 00:42:47;;;;;;;;;;;9.30;80.20;;;;;;7340971;19;108360;-61
2023/04/20 00:45:14;;;;;;;;;;;9.30;80.10;;;;;;7341313;19;109195;-61
2023/04/20 00:47:41;;;;;;;;;;;9.30;80.20;;;;;;7342183;19;108747;-61
2023/04/20 00:50:09;;;;;;;;;;;9.30;80.00;;;;;;7340995;19;108647;-62
2023/04/20 00:52:37;;;;;;;;;;;9.20;80.10;;;;;;7340028;19;110296;-61
2023/04/20 00:55:05;;;;;;;;;;;9.20;79.90;;;;;;7337639;19;108544;-61
2023/04/20 00:57:32;;;;;;;;;;;9.20;79.70;;;;;;7345413;19;109264;-61
2023/04/20 01:00:00;;;;;;;;;;;9.10;79.60;;;;;;7341309;19;108951;-61
2023/04/20 01:02:27;;;;;;;;;;;9.10;79.90;;;;;;7341859;19;108589;-61
2023/04/20 01:04:55;;;;;;;;;;;9.00;79.90;;;;;;7336227;19;110138;-61
2023/04/20 01:07:22;;;;;;;;;;;9.00;80.00;;;;;;7340463;19;110015;-61
2023/04/20 01:09:49;;;;;;;;;;;8.90;79.80;;;;;;7337072;19;108323;-61
2023/04/20 01:12:16;;;;;;;;;;;8.90;79.90;;;;;;7341789;19;109272;-61
2023/04/20 01:14:44;;;;;;;;;;;8.90;80.10;;;;;;7339192;19;108806;-61
2023/04/20 01:17:13;;;;;;;;;;;8.90;80.30;;;;;;7337094;19;108748;-61
2023/04/20 01:19:40;;;;;;;;;;;8.90;80.10;;;;;;7345081;19;109726;-61
2023/04/20 01:22:07;;;;;;;;;;;8.90;80.00;;;;;;7341726;19;108727;-61
2023/04/20 01:24:34;;;;;;;;;;;8.80;79.90;;;;;;7340626;19;110621;-61
2023/04/20 01:27:02;;;;;;;;;;;8.80;79.70;;;;;;7337955;19;108606;-61
2023/04/20 01:29:28;;;;;;;;;;;8.70;79.80;;;;;;7341913;19;108703;-61
2023/04/20 01:31:55;;;;;;;;;;;8.70;80.10;;;;;;7337708;19;109247;-61
2023/04/20 01:34:22;;;;;;;;;;;8.70;80.10;;;;;;7337836;19;109086;-61
2023/04/20 01:36:50;;;;;;;;;;;8.60;79.80;;;;;;7338732;19;108657;-61
2023/04/20 01:39:20;;;;;;;;;;;8.60;79.90;;;;;;7338092;19;109848;-60
2023/04/20 01:41:50;;;;;;;;;;;8.60;80.00;;;;;;7343035;19;109091;-61
2023/04/20 01:44:17;;;;;;;;;;;8.60;79.90;;;;;;7342290;19;108980;-61
2023/04/20 01:46:45;;;;;;;;;;;8.60;80.20;;;;;;7340840;19;109157;-61
2023/04/20 01:49:12;;;;;;;;;;;8.60;79.90;;;;;;7338178;19;108315;-61
2023/04/20 01:51:39;;;;;;;;;;;8.60;80.00;;;;;;7341664;19;110921;-61
2023/04/20 01:54:06;;;;;;;;;;;8.60;80.30;;;;;;7336953;19;108326;-61
2023/04/20 01:56:33;;;;;;;;;;;8.60;80.20;;;;;;7339439;19;109231;-60
2023/04/20 01:59:00;;;;;;;;;;;8.60;80.20;;;;;;7340172;19;110415;-61
2023/04/20 02:01:28;;;;;;;;;;;8.50;80.30;;;;;;7340507;19;109779;-61
2023/04/20 02:03:55;;;;;;;;;;;8.50;80.50;;;;;;7344295;19;109389;-61
2023/04/20 02:06:22;;;;;;;;;;;8.50;81.50;;;;;;7340035;19;109417;-61
2023/04/20 02:08:49;;;;;;;;;;;8.50;80.80;;;;;;7336555;19;109105;-61
2023/04/20 02:11:16;;;;;;;;;;;8.40;80.70;;;;;;7338751;19;109207;-61
2023/04/20 02:13:43;;;;;;;;;;;8.50;80.80;;;;;;7339312;19;108819;-61
2023/04/20 02:16:11;;;;;;;;;;;8.50;80.80;;;;;;7339912;19;109740;-60
2023/04/20 02:18:38;;;;;;;;;;;8.40;81.20;;;;;;7338573;19;109171;-60
2023/04/20 02:21:05;;;;;;;;;;;8.40;81.00;;;;;;7339218;19;110570;-61
2023/04/20 02:23:32;;;;;;;;;;;8.40;81.10;;;;;;7341110;19;108780;-61
2023/04/20 02:25:59;;;;;;;;;;;8.40;81.00;;;;;;7339331;19;108784;-61
2023/04/20 02:28:26;;;;;;;;;;;8.40;81.00;;;;;;7340927;19;109131;-60
2023/04/20 02:30:53;;;;;;;;;;;8.40;81.10;;;;;;7337360;19;109764;-61
2023/04/20 02:33:21;;;;;;;;;;;8.40;81.10;;;;;;7340791;19;109215;-60
2023/04/20 02:35:48;;;;;;;;;;;8.40;81.10;;;;;;7339876;19;108508;-60
2023/04/20 02:38:15;;;;;;;;;;;8.50;81.10;;;;;;7336659;19;109284;-60
2023/04/20 02:40:42;;;;;;;;;;;8.40;81.20;;;;;;7338809;19;108878;-61
2023/04/20 02:43:09;;;;;;;;;;;8.40;81.40;;;;;;7340333;19;109476;-61
2023/04/20 02:45:36;;;;;;;;;;;8.40;81.50;;;;;;7344777;19;109930;-61
2023/04/20 02:48:03;;;;;;;;;;;8.30;81.60;;;;;;7338519;19;111220;-61
2023/04/20 02:50:30;;;;;;;;;;;8.30;81.70;;;;;;7338560;19;110181;-61
2023/04/20 02:52:57;;;;;;;;;;;8.30;81.60;;;;;;7335993;19;109076;-61
2023/04/20 02:55:24;;;;;;;;;;;8.30;81.90;;;;;;7338208;19;110910;-60
2023/04/20 02:57:51;;;;;;;;;;;8.30;81.90;;;;;;7333969;19;111178;-61
2023/04/20 03:00:18;;;;;;;;;;;8.20;82.00;;;;;;7340942;19;109380;-61
2023/04/20 03:02:45;;;;;;;;;;;8.20;81.90;;;;;;7338373;19;109170;-59
2023/04/20 03:05:13;;;;;;;;;;;8.20;82.10;;;;;;7331052;19;109607;-59
2023/04/20 03:07:40;;;;;;;;;;;8.20;82.40;;;;;;7344982;19;111546;-59
2023/04/20 03:10:07;;;;;;;;;;;8.10;82.50;;;;;;7336275;19;109524;-59
2023/04/20 03:12:35;;;;;;;;;;;8.10;82.80;;;;;;7335677;19;108865;-60
2023/04/20 03:15:05;;;;;;;;;;;8.10;82.70;;;;;;7336655;19;109167;-59
2023/04/20 03:17:32;;;;;;;;;;;8.10;83.00;;;;;;7336497;19;109475;-59
2023/04/20 03:19:59;;;;;;;;;;;8.00;82.60;;;;;;7338145;19;108391;-59
2023/04/20 03:22:26;;;;;;;;;;;8.00;83.30;;;;;;7335681;19;108474;-59
2023/04/20 03:24:56;;;;;;;;;;;7.90;83.70;;;;;;7336549;19;128504;-59
2023/04/20 03:27:23;;;;;;;;;;;7.90;83.80;;;;;;7335650;19;108899;-62
2023/04/20 03:29:51;;;;;;;;;;;7.90;84.00;;;;;;7341858;19;108560;-60
2023/04/20 03:32:18;;;;;;;;;;;7.90;84.20;;;;;;7337216;19;109845;-64
2023/04/20 03:34:46;;;;;;;;;;;7.90;84.00;;;;;;7337956;19;109643;-67
2023/04/20 03:37:13;;;;;;;;;;;7.90;84.10;;;;;;7334046;19;109313;-82
2023/04/20 03:39:40;;;;;;;;;;;8.00;83.90;;;;;;7333322;19;109751;-82
2023/04/20 03:42:07;;;;;;;;;;;7.90;84.50;;;;;;7329889;19;108587;-81
2023/04/20 03:44:34;;;;;;;;;;;7.80;84.50;;;;;;7332852;19;110532;-81
2023/04/20 03:47:01;;;;;;;;;;;7.80;85.00;;;;;;7329167;19;108866;-81
2023/04/20 03:49:29;;;;;;;;;;;7.80;85.00;;;;;;7333067;19;111750;-81
2023/04/20 03:51:56;;;;;;;;;;;7.80;85.00;;;;;;7335303;19;109799;-81
2023/04/20 03:54:22;;;;;;;;;;;7.80;85.20;;;;;;7327478;19;109132;-82
2023/04/20 03:56:50;;;;;;;;;;;7.90;85.40;;;;;;7330599;19;110954;-81
2023/04/20 03:59:17;;;;;;;;;;;7.90;85.90;;;;;;7329588;19;109039;-81
2023/04/20 04:01:44;;;;;;;;;;;7.90;86.40;;;;;;7327686;19;109035;-81
2023/04/20 04:04:11;;;;;;;;;;;7.80;86.90;;;;;;7325772;19;110869;-81
2023/04/20 04:06:39;;;;;;;;;;;7.80;87.50;;;;;;7330892;19;110742;-81
2023/04/20 04:09:09;;;;;;;;;;;7.70;88.20;;;;;;7332546;19;109233;-81
2023/04/20 04:11:36;;;;;;;;;;;7.60;89.50;;;;;;7327617;19;111539;-81
2023/04/20 04:14:04;;;;;;;;;;;7.60;89.40;;;;;;7338537;19;108775;-81
2023/04/20 04:16:31;;;;;;;;;;;7.60;90.00;;;;;;7325189;19;111632;-82
2023/04/20 04:18:58;;;;;;;;;;;7.60;90.10;;;;;;7334820;19;108812;-59
2023/04/20 04:21:27;;;;;;;;;;;7.60;90.30;;;;;;7332482;19;109501;-59
2023/04/20 04:23:54;;;;;;;;;;;7.70;90.30;;;;;;7336544;19;110286;-59
2023/04/20 04:26:23;;;;;;;;;;;7.70;90.30;;;;;;7334139;19;108686;-59
2023/04/20 04:28:50;;;;;;;;;;;7.70;90.60;;;;;;7335483;19;113647;-59
2023/04/20 04:31:18;;;;;;;;;;;7.70;90.70;;;;;;7332231;19;112270;-59
2023/04/20 04:33:45;;;;;;;;;;;7.70;90.80;;;;;;7337780;19;108517;-59
2023/04/20 04:36:14;;;;;;;;;;;7.70;91.00;;;;;;7334966;19;109378;-59
2023/04/20 04:38:44;;;;;;;;;;;7.80;91.10;;;;;;7333226;19;108664;-69
2023/04/20 04:41:14;;;;;;;;;;;7.90;91.00;;;;;;7335666;19;109235;-69
2023/04/20 04:43:41;;;;;;;;;;;7.90;91.50;;;;;;7333314;19;110194;-71
2023/04/20 04:46:09;;;;;;;;;;;7.80;91.90;;;;;;7334547;19;108799;-60
2023/04/20 04:48:36;;;;;;;;;;;7.80;91.50;;;;;;7331311;19;111236;-62
2023/04/20 04:51:03;;;;;;;;;;;7.80;91.90;;;;;;7335358;19;109119;-59
2023/04/20 04:53:30;;;;;;;;;;;7.90;92.10;;;;;;7334509;19;109095;-60
2023/04/20 04:55:57;;;;;;;;;;;7.90;92.10;;;;;;7338644;19;109989;-59
2023/04/20 04:58:24;;;;;;;;;;;8.00;92.10;;;;;;7335131;19;108709;-59
2023/04/20 05:00:51;;;;;;;;;;;8.00;92.50;;;;;;7331131;19;108679;-59
2023/04/20 05:03:18;;;;;;;;;;;8.00;92.70;;;;;;7335079;19;109136;-59
2023/04/20 05:05:46;;;;;;;;;;;8.10;92.20;;;;;;7333380;19;108556;-60
2023/04/20 05:08:14;;;;;;;;;;;8.20;92.20;;;;;;7333713;19;109180;-59
2023/04/20 05:10:40;;;;;;;;;;;8.20;92.40;;;;;;7333497;19;109060;-59
2023/04/20 05:13:08;;;;;;;;;;;8.20;92.60;;;;;;7332448;19;108478;-60
2023/04/20 05:15:35;;;;;;;;;;;8.30;92.40;;;;;;7340750;19;108425;-60
2023/04/20 05:18:02;;;;;;;;;;;8.30;92.70;;;;;;7345568;19;109334;-60
2023/04/20 05:20:29;;;;;;;;;;;8.30;92.80;;;;;;7341350;19;108822;-60
2023/04/20 05:22:56;;;;;;;;;;;8.30;93.10;;;;;;7339125;19;110281;-60
2023/04/20 05:25:23;;;;;;;;;;;8.40;93.00;;;;;;7342800;19;109369;-60
2023/04/20 05:27:50;;;;;;;;;;;8.50;93.00;;;;;;7337741;19;109319;-60
2023/04/20 05:30:17;;;;;;;;;;;8.50;93.10;;;;;;7338577;19;110291;-60
2023/04/20 05:32:48;;;;;;;;;;;8.50;93.10;;;;;;7338504;19;108416;-63
2023/04/20 05:35:18;;;;;;;;;;;8.60;93.20;;;;;;7341549;19;109487;-59
2023/04/20 05:37:46;;;;;;;;;;;8.60;93.10;;;;;;7338765;19;111748;-60
2023/04/20 05:40:14;;;;;;;;;;;8.70;93.30;;;;;;7344254;19;108955;-60
2023/04/20 05:42:41;;;;;;;;;;;8.70;93.40;;;;;;7337770;19;110442;-60
2023/04/20 05:45:09;;;;;;;;;;;8.70;93.80;;;;;;7337387;19;108427;-60
2023/04/20 05:47:36;;;;;;;;;;;8.60;94.10;;;;;;7335378;19;108352;-60
2023/04/20 05:50:03;;;;;;;;;;;8.60;94.20;;;;;;7336398;19;110245;-59
2023/04/20 05:52:30;;;;;;;;;;;8.70;94.30;;;;;;7338375;19;110492;-60
2023/04/20 05:54:58;;;;;;;;;;;8.70;94.40;;;;;;7338495;19;109380;-60
2023/04/20 05:57:25;;;;;;;;;;;8.70;94.70;;;;;;7338169;19;111513;-61
2023/04/20 05:59:54;;;;;;;;;;;8.80;95.00;;;;;;7336099;19;110216;-60
2023/04/20 06:02:21;;;;;;;;;;;8.80;95.60;;;;;;7342898;19;108817;-65
2023/04/20 06:04:48;;;;;;;;;;;8.80;95.80;;;;;;7335526;19;109309;-65
2023/04/20 06:07:16;;;;;;;;;;;8.70;96.50;;;;;;7332275;19;109268;-64
2023/04/20 06:09:43;;;;;;;;;;;8.60;97.30;;;;;;7335457;19;109363;-64
2023/04/20 06:12:10;;;;;;;;;;;8.60;98.10;;;;;;7339383;19;109142;-65
2023/04/20 06:14:37;;;;;;;;;;;8.60;98.30;;;;;;7338900;19;110302;-65
2023/04/20 06:17:04;;;;;;;;;;;8.50;98.80;;;;;;7334987;19;110286;-67
2023/04/20 06:19:32;;;;;;;;;;;8.40;99.40;;;;;;7338353;19;109433;-69
2023/04/20 06:21:59;;;;;;;;;;;8.40;99.30;;;;;;7341430;19;109175;-68
2023/04/20 06:24:26;;;;;;;;;;;8.50;99.90;;;;;;7343788;19;108898;-68
2023/04/20 06:26:53;;;;;;;;;;;8.50;99.80;;;;;;7341012;19;108560;-69
2023/04/20 06:29:20;;;;;;;;;;;8.40;99.90;;;;;;7339586;19;110707;-68
2023/04/20 06:31:47;;;;;;;;;;;8.40;99.90;;;;;;7339444;19;108299;-68
2023/04/20 06:34:15;;;;;;;;;;;8.50;99.90;;;;;;7339422;19;109825;-68
2023/04/20 06:36:42;;;;;;;;;;;8.50;99.90;;;;;;7337421;19;110172;-67
2023/04/20 06:39:10;;;;;;;;;;;8.50;99.90;;;;;;7337983;19;109874;-68
2023/04/20 06:41:37;;;;;;;;;;;8.60;99.90;;;;;;7338486;19;110230;-68
2023/04/20 06:44:05;;;;;;;;;;;8.60;99.90;;;;;;7346151;19;110343;-67
2023/04/20 06:46:32;;;;;;;;;;;8.60;99.90;;;;;;7339475;19;110515;-67
2023/04/20 06:48:59;;;;;;;;;;;8.70;99.90;;;;;;7335084;19;109112;-68
2023/04/20 06:51:27;;;;;;;;;;;8.80;99.90;;;;;;7337259;19;109323;-67
2023/04/20 06:53:54;;;;;;;;;;;8.80;99.90;;;;;;7336894;19;109491;-68
2023/04/20 06:56:21;;;;;;;;;;;8.70;99.90;;;;;;7338647;19;109729;-68
2023/04/20 06:58:48;;;;;;;;;;;8.70;99.90;;;;;;7337965;19;108686;-68
2023/04/20 07:01:15;;;;;;;;;;;8.80;99.90;;;;;;7337194;19;109278;-68
2023/04/20 07:03:45;;;;;;;;;;;8.90;99.90;;;;;;7333904;19;109139;-68
2023/04/20 07:06:12;;;;;;;;;;;8.90;99.90;;;;;;7341221;19;108916;-71
2023/04/20 07:08:39;;;;;;;;;;;9.00;99.90;;;;;;7336539;19;109449;-69
2023/04/20 07:11:06;;;;;;;;;;;9.00;99.90;;;;;;7336832;19;108585;-68
2023/04/20 07:13:34;;;;;;;;;;;9.10;99.90;;;;;;7335876;19;108716;-67
2023/04/20 07:16:01;;;;;;;;;;;9.10;99.90;;;;;;7335879;19;112716;-70
2023/04/20 07:18:28;;;;;;;;;;;9.10;99.90;;;;;;7337107;19;109339;-79
2023/04/20 07:20:55;;;;;;;;;;;9.20;99.90;;;;;;7337752;19;108669;-75
2023/04/20 07:23:22;;;;;;;;;;;9.20;99.90;;;;;;7337851;19;109321;-71
2023/04/20 07:25:49;;;;;;;;;;;9.30;99.90;;;;;;7336235;19;108659;-79
2023/04/20 07:28:16;;;;;;;;;;;9.30;99.90;;;;;;7343886;19;109249;-68
2023/04/20 07:30:43;;;;;;;;;;;9.30;99.90;;;;;;7337368;19;109837;-68
2023/04/20 07:35:41;;;;;;;;;;;9.40;99.90;;;;;;7335141;19;109477;-68
2023/04/20 07:38:08;;;;;;;;;;;9.40;99.90;;;;;;7337245;19;110116;-67
2023/04/20 07:40:35;;;;;;;;;;;9.50;99.90;;;;;;7337424;19;108230;-68
2023/04/20 07:43:02;;;;;;;;;;;9.50;99.90;;;;;;7337161;19;109221;-68
2023/04/20 07:45:29;;;;;;;;;;;9.50;99.90;;;;;;7337607;19;108771;-68
2023/04/20 07:47:56;;;;;;;;;;;9.60;99.90;;;;;;7335046;19;111348;-67
2023/04/20 07:50:23;;;;;;;;;;;9.70;99.90;;;;;;7341772;19;111289;-67
2023/04/20 07:52:50;;;;;;;;;;;9.80;99.90;;;;;;7335907;19;113635;-69
2023/04/20 07:55:17;;;;;;;;;;;9.90;99.90;;;;;;7336207;19;109163;-68
2023/04/20 07:57:44;;;;;;;;;;;10.00;99.90;;;;;;7335098;19;110723;-67
2023/04/20 08:00:12;;;;;;;;;;;10.00;99.90;;;;;;7337410;19;108841;-67
2023/04/20 08:02:39;;;;;;;;;;;10.00;99.90;;;;;;7335226;19;110283;-68
2023/04/20 08:05:08;;;;;;;;;;;10.00;99.90;;;;;;7338836;19;108758;-67
2023/04/20 08:07:36;;;;;;;;;;;10.00;99.90;;;;;;7333762;19;109048;-67
2023/04/20 08:10:05;;;;;;;;;;;10.00;99.90;;;;;;7336587;19;108910;-67
2023/04/20 08:12:32;;;;;;;;;;;10.10;99.90;;;;;;7342119;19;109268;-67
2023/04/20 08:15:00;;;;;;;;;;;10.00;99.90;;;;;;7332099;19;109421;-67
2023/04/20 08:17:27;;;;;;;;;;;10.00;99.90;;;;;;7336300;19;108605;-67
2023/04/20 08:19:54;;;;;;;;;;;10.10;99.90;;;;;;7334400;19;109935;-66
2023/04/20 08:22:25;;;;;;;;;;;10.00;99.90;;;;;;7335229;19;109173;-66
2023/04/20 08:24:52;;;;;;;;;;;10.10;99.90;;;;;;7334672;19;108493;-70
2023/04/20 08:27:19;;;;;;;;;;;10.10;99.90;;;;;;7335348;19;109447;-70
2023/04/20 08:29:46;;;;;;;;;;;10.20;99.90;;;;;;7335228;19;110493;-69
2023/04/20 08:32:14;;;;;;;;;;;10.40;99.90;;;;;;7338082;19;108592;-67
2023/04/20 08:34:41;;;;;;;;;;;10.50;99.90;;;;;;7339680;19;110083;-68
2023/04/20 08:37:08;;;;;;;;;;;10.70;99.90;;;;;;7335871;19;108433;-67
2023/04/20 08:39:36;;;;;;;;;;;10.70;99.90;;;;;;7336008;19;109296;-67
2023/04/20 08:42:04;;;;;;;;;;;10.70;99.90;;;;;;7334226;19;111639;-67
2023/04/20 08:44:31;;;;;;;;;;;10.70;99.90;;;;;;7336232;19;110112;-67
2023/04/20 08:46:58;;;;;;;;;;;10.70;99.90;;;;;;7334506;19;108973;-67
2023/04/20 08:49:27;;;;;;;;;;;10.60;99.90;;;;;;7340559;19;111097;-66
2023/04/20 08:51:54;;;;;;;;;;;10.60;99.90;;;;;;7341717;19;108433;-67
2023/04/20 08:54:21;;;;;;;;;;;10.60;99.90;;;;;;7349365;19;109129;-67
2023/04/20 08:56:50;;;;;;;;;;;10.60;99.90;;;;;;7342324;19;108927;-67
2023/04/20 08:59:17;;;;;;;;;;;10.40;99.90;;;;;;7341716;19;109268;-67
2023/04/20 09:01:44;;;;;;;;;;;10.40;99.90;;;;;;7341061;19;109231;-69
2023/04/20 09:04:14;;;;;;;;;;;10.40;99.90;;;;;;7342425;19;108372;-67
2023/04/20 09:06:42;;;;;;;;;;;10.60;99.90;;;;;;7340186;19;109060;-67
2023/04/20 09:09:10;;;;;;;;;;;10.50;99.90;;;;;;7338982;19;112783;-68
2023/04/20 09:11:37;;;;;;;;;;;10.50;99.90;;;;;;7342232;19;108378;-67
2023/04/20 09:14:05;;;;;;;;;;;10.60;99.90;;;;;;7341743;19;109108;-67
2023/04/20 09:16:39;;;;;;;;;;;10.80;99.90;;;;;;7347275;19;112366;-67
2023/04/20 09:19:06;;;;;;;;;;;10.90;99.90;;;;;;7343387;19;108340;-67
2023/04/20 09:21:35;;;;;;;;;;;10.90;99.90;;;;;;7342401;19;110155;-68
2023/04/20 09:24:05;;;;;;;;;;;10.80;99.90;;;;;;7343153;19;108734;-67
2023/04/20 09:26:33;;;;;;;;;;;10.70;99.90;;;;;;7341666;19;109035;-67
2023/04/20 09:29:03;;;;;;;;;;;10.80;99.90;;;;;;7338446;19;110099;-67
2023/04/20 09:31:30;;;;;;;;;;;10.80;99.90;;;;;;7341666;19;108511;-67
2023/04/20 09:33:58;;;;;;;;;;;10.80;99.90;;;;;;7338921;19;109120;-67
2023/04/20 09:36:42;;;;;;;;;;;11.00;99.90;;;;;;7341878;19;110456;-67
2023/04/20 09:39:10;;;;;;;;;;;11.10;99.90;;;;;;7347444;19;110307;-67
2023/04/20 09:41:38;;;;;;;;;;;11.20;99.80;;;;;;7341031;19;109505;-69
2023/04/20 09:44:05;;;;;;;;;;;11.20;99.90;;;;;;7340955;19;108274;-66
2023/04/20 09:46:34;;;;;;;;;;;11.20;99.90;;;;;;7338325;19;109460;-67
2023/04/20 09:49:04;;;;;;;;;;;11.30;99.90;;;;;;7340903;19;109172;-67
2023/04/20 09:51:35;;;;;;;;;;;11.40;99.90;;;;;;7340500;19;108709;-67
2023/04/20 09:54:03;;;;;;;;;;;11.50;99.90;;;;;;7341825;19;109735;-68
2023/04/20 09:56:31;;;;;;;;;;;11.40;99.80;;;;;;7341454;19;109371;-67
2023/04/20 09:58:59;;;;;;;;;;;11.50;99.90;;;;;;7339964;19;108609;-68
2023/04/20 10:01:29;;;;;;;;;;;11.50;99.70;;;;;;7344532;19;108500;-68
2023/04/20 10:03:57;;;;;;;;;;;11.40;99.30;;;;;;7340904;19;108470;-68
2023/04/20 10:06:34;;;;;;;;;;;11.30;99.90;;;;;;7338836;19;109253;-68
2023/04/20 10:09:03;;;;;;;;;;;11.30;99.90;;;;;;7339019;19;110021;-67
2023/04/20 10:11:30;;;;;;;;;;;11.40;99.90;;;;;;7338637;19;108445;-70
2023/04/20 10:14:24;;;;;;;;;;;11.50;99.70;;;;;;7341642;19;109107;-74
2023/04/20 10:17:08;;;;;;;;;;;11.50;99.40;;;;;;7338833;19;111094;-74
2023/04/20 10:19:39;;;;;;;;;;;11.50;99.90;;;;;;7340056;19;109174;-69
2023/04/20 10:22:06;;;;;;;;;;;11.50;99.90;;;;;;7342060;19;109089;-69
2023/04/20 10:24:36;;;;;;;;;;;11.50;99.90;;;;;;7343704;19;110350;-67
2023/04/20 10:27:14;;;;;;;;;;;11.40;99.70;;;;;;7339629;19;109325;-70
2023/04/20 10:29:41;;;;;;;;;;;11.20;99.90;;;;;;7335723;19;110292;-68
2023/04/20 10:32:19;;;;;;;;;;;11.10;99.90;;;;;;7341481;19;108783;-67
2023/04/20 10:34:46;;;;;;;;;;;11.10;99.90;;;;;;7335963;19;108719;-68
2023/04/20 10:37:13;;;;;;;;;;;11.20;99.90;;;;;;7340088;19;111852;-67
2023/04/20 10:39:45;;;;;;;;;;;11.30;99.90;;;;;;7337563;19;108883;-68
2023/04/20 10:42:12;;;;;;;;;;;11.30;99.90;;;;;;7339630;19;110212;-69
2023/04/20 10:44:52;;;;;;;;;;;11.20;99.90;;;;;;7338404;19;110164;-68
2023/04/20 10:47:26;;;;;;;;;;;11.20;99.90;;;;;;7345077;19;108351;-67
2023/04/20 10:49:53;;;;;;;;;;;11.10;99.90;;;;;;7342084;19;110119;-67
2023/04/20 10:52:41;;;;;;;;;;;11.10;99.90;;;;;;7341018;19;108474;-67
2023/04/20 10:55:18;;;;;;;;;;;11.10;99.90;;;;;;7340438;19;109381;-67
2023/04/20 10:57:45;;;;;;;;;;;11.10;99.90;;;;;;7336047;19;110503;-68
2023/04/20 11:00:15;;;;;;;;;;;11.10;99.90;;;;;;7339042;19;108522;-67
2023/04/20 11:02:46;;;;;;;;;;;11.10;99.90;;;;;;7340436;19;108445;-68
2023/04/20 11:05:14;;;;;;;;;;;11.30;99.90;;;;;;7338838;19;109667;-68
2023/04/20 11:07:52;;;;;;;;;;;11.40;99.90;;;;;;7345600;19;109444;-68
2023/04/20 11:10:23;;;;;;;;;;;11.70;99.90;;;;;;7338261;19;109109;-67
2023/04/20 11:12:50;;;;;;;;;;;11.90;99.90;;;;;;7339935;19;113404;-67
2023/04/20 11:15:17;;;;;;;;;;;12.00;99.90;;;;;;7339651;19;109363;-77
2023/04/20 11:17:45;;;;;;;;;;;12.10;99.70;;;;;;7337380;19;109528;-73
2023/04/20 11:20:13;;;;;;;;;;;12.20;99.30;;;;;;7338983;19;113221;-77
2023/04/20 11:22:41;;;;;;;;;;;12.10;99.00;;;;;;7338031;19;109453;-80
2023/04/20 11:25:09;;;;;;;;;;;12.10;99.00;;;;;;7337118;19;109428;-68
2023/04/20 11:27:37;;;;;;;;;;;12.00;99.00;;;;;;7340058;19;108537;-70
2023/04/20 11:30:04;;;;;;;;;;;12.00;98.60;;;;;;7338790;19;108953;-68
2023/04/20 11:32:32;;;;;;;;;;;12.00;99.10;;;;;;7334602;19;109133;-68
2023/04/20 11:35:00;;;;;;;;;;;12.10;99.20;;;;;;7338162;19;108454;-68
2023/04/20 11:37:33;;;;;;;;;;;12.10;99.10;;;;;;7339011;19;110973;-68
2023/04/20 11:40:07;;;;;;;;;;;12.00;98.50;;;;;;7337386;19;108350;-68
2023/04/20 11:42:34;;;;;;;;;;;12.10;99.40;;;;;;7338956;19;109184;-67
2023/04/20 11:45:02;;;;;;;;;;;12.00;99.10;;;;;;7337331;19;109946;-67
2023/04/20 11:47:29;;;;;;;;;;;12.00;99.30;;;;;;7336481;19;109513;-67
2023/04/20 11:49:56;;;;;;;;;;;12.20;99.50;;;;;;7338172;19;109383;-70
2023/04/20 11:52:23;;;;;;;;;;;12.30;98.80;;;;;;7342615;19;111891;-69
2023/04/20 11:54:50;;;;;;;;;;;12.40;99.50;;;;;;7336128;19;112251;-70
2023/04/20 11:57:17;;;;;;;;;;;12.50;98.60;;;;;;7337152;19;110530;-69
2023/04/20 11:59:47;;;;;;;;;;;12.40;98.40;;;;;;7337379;19;109507;-69
2023/04/20 12:02:15;;;;;;;;;;;12.30;98.90;;;;;;7337994;19;109617;-69
2023/04/20 12:04:42;;;;;;;;;;;12.40;98.70;;;;;;7336545;19;111016;-69
2023/04/20 12:07:10;;;;;;;;;;;12.30;98.70;;;;;;7336387;19;109443;-69
2023/04/20 12:09:37;;;;;;;;;;;12.30;98.50;;;;;;7334331;19;109140;-69
2023/04/20 12:12:04;;;;;;;;;;;12.30;99.60;;;;;;7338813;19;109343;-70
2023/04/20 12:14:35;;;;;;;;;;;12.20;98.90;;;;;;7341143;19;109237;-70
2023/04/20 12:17:03;;;;;;;;;;;12.20;99.20;;;;;;7335437;19;110323;-72
2023/04/20 12:19:30;;;;;;;;;;;12.10;99.60;;;;;;7337798;19;109000;-72
2023/04/20 12:21:57;;;;;;;;;;;11.90;99.90;;;;;;7335503;19;108882;-71
2023/04/20 12:24:25;;;;;;;;;;;11.60;99.90;;;;;;7336123;19;109352;-71
2023/04/20 12:26:52;;;;;;;;;;;11.50;99.90;;;;;;7340066;19;109490;-70
2023/04/20 12:29:19;;;;;;;;;;;11.60;99.90;;;;;;7333855;19;108803;-71
2023/04/20 12:31:46;;;;;;;;;;;11.60;99.90;;;;;;7336614;19;109657;-70
2023/04/20 12:34:13;;;;;;;;;;;11.70;99.90;;;;;;7336661;19;110175;-70
2023/04/20 12:36:40;;;;;;;;;;;11.60;99.90;;;;;;7342807;19;108486;-70
2023/04/20 12:39:07;;;;;;;;;;;11.60;99.90;;;;;;7334923;19;108907;-70
2023/04/20 12:41:35;;;;;;;;;;;11.50;99.90;;;;;;7333160;19;108688;-70
2023/04/20 12:44:02;;;;;;;;;;;11.50;99.90;;;;;;7332445;19;112641;-70
2023/04/20 12:46:33;;;;;;;;;;;11.50;99.90;;;;;;7336480;19;108623;-70
2023/04/20 12:49:00;;;;;;;;;;;11.60;99.90;;;;;;7334335;19;109328;-70
2023/04/20 12:51:27;;;;;;;;;;;11.60;99.90;;;;;;7332406;19;111017;-70
2023/04/20 12:53:54;;;;;;;;;;;11.40;99.90;;;;;;7335197;19;108525;-70
2023/04/20 12:56:21;;;;;;;;;;;11.10;99.90;;;;;;7343018;19;110269;-70
2023/04/20 12:58:48;;;;;;;;;;;10.70;99.90;;;;;;7334023;19;108668;-70
2023/04/20 13:01:15;;;;;;;;;;;10.50;99.90;;;;;;7335790;19;108661;-72
2023/04/20 13:03:42;;;;;;;;;;;10.50;99.90;;;;;;7334250;19;109017;-70
2023/04/20 13:06:10;;;;;;;;;;;10.70;99.90;;;;;;7335186;19;110607;-70
2023/04/20 13:08:39;;;;;;;;;;;10.70;99.90;;;;;;7336327;19;108685;-71
2023/04/20 13:11:07;;;;;;;;;;;10.90;99.90;;;;;;7335017;19;109597;-70
2023/04/20 13:13:34;;;;;;;;;;;11.00;99.90;;;;;;7335785;19;108548;-70
2023/04/20 13:16:01;;;;;;;;;;;11.00;99.90;;;;;;7331663;19;109352;-70
2023/04/20 13:18:29;;;;;;;;;;;11.20;99.90;;;;;;7339961;19;110169;-70
2023/04/20 13:20:55;;;;;;;;;;;11.50;99.90;;;;;;7334462;19;109036;-70
2023/04/20 13:23:23;;;;;;;;;;;11.70;99.90;;;;;;7335300;19;109035;-70
2023/04/20 13:25:50;;;;;;;;;;;12.00;99.90;;;;;;7332857;19;108731;-70
2023/04/20 13:28:18;;;;;;;;;;;12.30;99.90;;;;;;7335535;19;108943;-71
2023/04/20 13:30:45;;;;;;;;;;;12.70;99.90;;;;;;7332128;19;109136;-70
2023/04/20 13:33:12;;;;;;;;;;;13.10;99.90;;;;;;7336768;19;109366;-70
2023/04/20 13:35:39;;;;;;;;;;;13.40;99.90;;;;;;7340109;19;109888;-70
2023/04/20 13:38:06;;;;;;;;;;;13.40;99.90;;;;;;7342703;19;109255;-70
2023/04/20 13:40:33;;;;;;;;;;;13.50;99.90;;;;;;7346208;19;108785;-70
2023/04/20 13:43:00;;;;;;;;;;;13.50;99.90;;;;;;7339597;19;109163;-71
2023/04/20 13:45:27;;;;;;;;;;;13.40;99.90;;;;;;7340047;19;108357;-70
2023/04/20 13:47:54;;;;;;;;;;;13.30;99.90;;;;;;7340235;19;108692;-69
2023/04/20 13:50:21;;;;;;;;;;;13.10;99.90;;;;;;7340449;19;109786;-70
2023/04/20 13:52:48;;;;;;;;;;;13.00;99.90;;;;;;7341171;19;109140;-71
2023/04/20 13:55:16;;;;;;;;;;;13.00;99.90;;;;;;7341923;19;108855;-70
2023/04/20 13:57:44;;;;;;;;;;;12.90;99.90;;;;;;7338532;19;109992;-71
2023/04/20 14:00:11;;;;;;;;;;;12.80;99.90;;;;;;7342832;19;108711;-74
2023/04/20 14:02:38;;;;;;;;;;;12.60;99.90;;;;;;7342797;19;111364;-72
2023/04/20 14:05:06;;;;;;;;;;;12.30;99.90;;;;;;7341880;19;109255;-70
2023/04/20 14:07:33;;;;;;;;;;;12.00;99.90;;;;;;7340406;19;108719;-69
2023/04/20 14:10:00;;;;;;;;;;;11.80;99.90;;;;;;7340376;19;110340;-69
2023/04/20 14:12:27;;;;;;;;;;;11.80;99.90;;;;;;7339268;19;108913;-70
2023/04/20 14:14:57;;;;;;;;;;;11.70;99.90;;;;;;7339781;19;108715;-70
2023/04/20 14:17:25;;;;;;;;;;;11.60;99.90;;;;;;7338894;19;110498;-69